Time;durP1;ratioP1;P1;durP2;ratioP2;P2;SDS_P1;SDS_P2;PMS_P1;PMS_P2;Temp;Humidity;BMP_temperature;BMP_pressure;BME280_temperature;BME280_humidity;BME280_pressure;Samples;Min_cycle;Max_cycle;Signal;HPM_P1;HPM_P2
2022/01/10 00:00:54;;;;;;;;;;;8.30;96.30;;;;;;5017928;28;20376;-72
2022/01/10 00:03:22;;;;;;;;;;;8.30;96.20;;;;;;5016380;28;19909;-72
2022/01/10 00:05:48;;;;;;;;;;;8.30;96.20;;;;;;5018121;28;19909;-72
2022/01/10 00:08:14;;;;;;;;;;;8.30;96.20;;;;;;5017686;28;19967;-72
2022/01/10 00:10:40;;;;;;;;;;;8.30;96.30;;;;;;5017590;28;19966;-72
2022/01/10 00:13:06;;;;;;;;;;;8.30;96.30;;;;;;5017538;28;19917;-72
2022/01/10 00:15:32;;;;;;;;;;;8.40;96.20;;;;;;5017756;28;19910;-72
2022/01/10 00:17:57;;;;;;;;;;;8.30;96.10;;;;;;5017652;28;19909;-72
2022/01/10 00:20:23;;;;;;;;;;;8.30;96.10;;;;;;5017719;28;19932;-72
2022/01/10 00:22:50;;;;;;;;;;;8.40;96.10;;;;;;5017481;28;19917;-72
2022/01/10 00:25:17;;;;;;;;;;;8.40;96.00;;;;;;5017219;28;20071;-72
2022/01/10 00:27:43;;;;;;;;;;;8.40;95.90;;;;;;5016202;28;19910;-72
2022/01/10 00:30:10;;;;;;;;;;;8.40;95.90;;;;;;5004469;28;19909;-72
2022/01/10 00:32:37;;;;;;;;;;;8.40;96.00;;;;;;5023932;28;19916;-72
2022/01/10 00:35:02;;;;;;;;;;;8.40;96.00;;;;;;5017652;28;19964;-72
2022/01/10 00:37:28;;;;;;;;;;;8.40;95.90;;;;;;5017468;28;19909;-72
2022/01/10 00:39:54;;;;;;;;;;;8.40;95.90;;;;;;5017268;28;19932;-72
2022/01/10 00:42:19;;;;;;;;;;;8.40;95.90;;;;;;5017357;28;19909;-72
2022/01/10 00:44:50;;;;;;;;;;;8.40;96.00;;;;;;5018467;28;19917;-72
2022/01/10 00:47:16;;;;;;;;;;;8.40;96.00;;;;;;5028231;28;19933;-72
2022/01/10 00:49:42;;;;;;;;;;;8.40;96.00;;;;;;5020940;28;19910;-72
2022/01/10 00:52:07;;;;;;;;;;;8.40;96.00;;;;;;5019580;28;20004;-72
2022/01/10 00:54:33;;;;;;;;;;;8.40;96.00;;;;;;5020410;28;19917;-72
2022/01/10 00:56:59;;;;;;;;;;;8.40;96.00;;;;;;5016589;28;19918;-72
2022/01/10 00:59:24;;;;;;;;;;;8.40;95.90;;;;;;5020794;28;19909;-72
2022/01/10 01:01:50;;;;;;;;;;;8.40;96.00;;;;;;5020760;28;19913;-72
2022/01/10 01:04:15;;;;;;;;;;;8.40;96.00;;;;;;5020616;28;19914;-72
2022/01/10 01:06:41;;;;;;;;;;;8.40;95.90;;;;;;5020649;28;20295;-72
2022/01/10 01:09:10;;;;;;;;;;;8.40;95.90;;;;;;5018975;28;19916;-72
2022/01/10 01:14:21;;;;;;;;;;;8.40;95.90;;;;;;5020596;28;19928;-72
2022/01/10 01:16:56;;;;;;;;;;;8.40;95.90;;;;;;5020153;28;20000;-72
2022/01/10 01:24:33;;;;;;;;;;;8.40;95.90;;;;;;5019827;28;19924;-71
2022/01/10 01:26:59;;;;;;;;;;;8.40;95.90;;;;;;5020330;28;19910;-71
2022/01/10 01:29:29;;;;;;;;;;;8.40;95.80;;;;;;5006905;28;19910;-71
2022/01/10 01:31:55;;;;;;;;;;;8.40;95.90;;;;;;5022246;28;20424;-71
2022/01/10 01:34:21;;;;;;;;;;;8.40;95.80;;;;;;5023771;28;20032;-71
2022/01/10 01:36:50;;;;;;;;;;;8.40;95.90;;;;;;5019929;28;20335;-71
2022/01/10 01:39:24;;;;;;;;;;;8.40;95.90;;;;;;5019393;28;19909;-71
2022/01/10 01:41:54;;;;;;;;;;;8.40;95.90;;;;;;5020100;28;19913;-71
2022/01/10 01:44:19;;;;;;;;;;;8.40;96.00;;;;;;5019594;28;19916;-71
2022/01/10 01:46:45;;;;;;;;;;;8.40;96.00;;;;;;5025425;28;19999;-71
2022/01/10 01:49:11;;;;;;;;;;;8.40;96.10;;;;;;5020971;28;19910;-71
2022/01/10 01:51:37;;;;;;;;;;;8.30;96.10;;;;;;5019758;28;20288;-71
2022/01/10 01:54:03;;;;;;;;;;;8.30;96.10;;;;;;5019204;28;19936;-71
2022/01/10 01:56:29;;;;;;;;;;;8.30;96.10;;;;;;5015620;28;19910;-71
2022/01/10 01:58:55;;;;;;;;;;;8.30;96.20;;;;;;5018748;28;20358;-71
2022/01/10 02:01:22;;;;;;;;;;;8.30;96.20;;;;;;5019483;28;20000;-71
2022/01/10 02:03:48;;;;;;;;;;;8.30;96.10;;;;;;5019399;28;19909;-71
2022/01/10 02:06:14;;;;;;;;;;;8.30;96.10;;;;;;5019426;28;20399;-70
2022/01/10 02:08:40;;;;;;;;;;;8.30;96.00;;;;;;5019321;28;19913;-70
2022/01/10 02:11:06;;;;;;;;;;;8.30;95.90;;;;;;5018925;28;20000;-71
2022/01/10 02:13:32;;;;;;;;;;;8.30;95.90;;;;;;5006271;28;19936;-70
2022/01/10 02:16:01;;;;;;;;;;;8.40;95.90;;;;;;5019257;28;20377;-71
2022/01/10 02:18:27;;;;;;;;;;;8.40;95.90;;;;;;5019201;28;20460;-70
2022/01/10 02:20:52;;;;;;;;;;;8.40;95.90;;;;;;5019126;28;19913;-71
2022/01/10 02:23:19;;;;;;;;;;;8.40;95.90;;;;;;5019265;28;19909;-71
2022/01/10 02:25:45;;;;;;;;;;;8.40;95.80;;;;;;5018591;28;19944;-71
2022/01/10 02:28:11;;;;;;;;;;;8.40;95.90;;;;;;5014247;28;19910;-70
2022/01/10 02:30:38;;;;;;;;;;;8.40;95.90;;;;;;5011111;28;19913;-71
2022/01/10 02:33:04;;;;;;;;;;;8.40;95.80;;;;;;5025211;28;19910;-70
2022/01/10 02:35:34;;;;;;;;;;;8.40;95.80;;;;;;5018938;28;20428;-71
2022/01/10 02:37:59;;;;;;;;;;;8.40;95.70;;;;;;5018777;28;19910;-71
2022/01/10 02:40:28;;;;;;;;;;;8.40;95.80;;;;;;5018554;28;19910;-70
2022/01/10 02:42:54;;;;;;;;;;;8.40;95.80;;;;;;5018512;28;19917;-71
2022/01/10 02:45:20;;;;;;;;;;;8.40;95.80;;;;;;5018721;28;19909;-70
2022/01/10 02:47:48;;;;;;;;;;;8.40;95.80;;;;;;5025806;28;19910;-71
2022/01/10 02:50:14;;;;;;;;;;;8.40;95.90;;;;;;5018630;28;19913;-71
2022/01/10 02:52:39;;;;;;;;;;;8.50;96.00;;;;;;5017350;28;19916;-71
2022/01/10 02:55:06;;;;;;;;;;;8.40;96.00;;;;;;5018210;28;19917;-70
2022/01/10 02:57:32;;;;;;;;;;;8.40;96.00;;;;;;5014547;28;19973;-70
2022/01/10 02:59:58;;;;;;;;;;;8.40;96.00;;;;;;5018355;28;20440;-71
2022/01/10 03:02:29;;;;;;;;;;;8.40;96.00;;;;;;5018544;28;19910;-70
2022/01/10 03:04:54;;;;;;;;;;;8.40;96.10;;;;;;5018478;28;19910;-71
2022/01/10 03:07:23;;;;;;;;;;;8.40;96.20;;;;;;5018281;28;19964;-71
2022/01/10 03:09:49;;;;;;;;;;;8.40;96.20;;;;;;5017821;28;19916;-70
2022/01/10 03:12:15;;;;;;;;;;;8.40;96.20;;;;;;5018378;28;19996;-71
2022/01/10 03:14:41;;;;;;;;;;;8.40;96.20;;;;;;5018309;28;19914;-71
2022/01/10 03:17:09;;;;;;;;;;;8.40;96.20;;;;;;5018437;28;20339;-71
2022/01/10 03:19:34;;;;;;;;;;;8.40;96.30;;;;;;5018167;28;20381;-71
2022/01/10 03:22:00;;;;;;;;;;;8.40;96.30;;;;;;5018393;28;19933;-70
2022/01/10 03:24:26;;;;;;;;;;;8.40;96.30;;;;;;5017635;28;19917;-71
2022/01/10 03:26:51;;;;;;;;;;;8.40;96.40;;;;;;5018581;28;19917;-71
2022/01/10 03:29:18;;;;;;;;;;;8.40;96.50;;;;;;5004921;28;19920;-71
2022/01/10 03:31:44;;;;;;;;;;;8.40;96.40;;;;;;5018854;28;19909;-71
2022/01/10 03:34:12;;;;;;;;;;;8.40;96.40;;;;;;5023366;28;19936;-71
2022/01/10 03:36:38;;;;;;;;;;;8.40;96.40;;;;;;5018278;28;19916;-71
2022/01/10 03:39:04;;;;;;;;;;;8.40;96.30;;;;;;5017648;28;19910;-71
2022/01/10 03:41:29;;;;;;;;;;;8.40;96.30;;;;;;5018070;28;19917;-71
2022/01/10 03:43:55;;;;;;;;;;;8.40;96.30;;;;;;5017816;28;19910;-71
2022/01/10 03:46:21;;;;;;;;;;;8.40;96.30;;;;;;5020389;28;19913;-71
2022/01/10 03:48:46;;;;;;;;;;;8.40;96.20;;;;;;5022360;28;20000;-71
2022/01/10 03:51:12;;;;;;;;;;;8.40;96.20;;;;;;5018010;28;19913;-71
2022/01/10 03:53:38;;;;;;;;;;;8.40;96.20;;;;;;5017783;28;19914;-71
2022/01/10 03:56:03;;;;;;;;;;;8.40;96.20;;;;;;5017732;28;19910;-71
2022/01/10 03:58:29;;;;;;;;;;;8.40;96.20;;;;;;5014093;28;19944;-71
2022/01/10 04:00:55;;;;;;;;;;;8.40;96.20;;;;;;5016527;28;19914;-71
2022/01/10 04:03:20;;;;;;;;;;;8.40;96.20;;;;;;5017740;28;19964;-71
2022/01/10 04:05:46;;;;;;;;;;;8.50;96.20;;;;;;5017997;28;19955;-71
2022/01/10 04:08:12;;;;;;;;;;;8.40;96.10;;;;;;5017580;28;19916;-71
2022/01/10 04:10:38;;;;;;;;;;;8.50;96.10;;;;;;5017635;28;19910;-71
2022/01/10 04:13:04;;;;;;;;;;;8.50;96.10;;;;;;5017592;28;19910;-71
2022/01/10 04:15:29;;;;;;;;;;;8.40;96.10;;;;;;5017788;28;19918;-71
2022/01/10 04:17:57;;;;;;;;;;;8.50;96.10;;;;;;5017695;28;19910;-71
2022/01/10 04:20:25;;;;;;;;;;;8.50;96.10;;;;;;5020067;28;20072;-71
2022/01/10 04:22:50;;;;;;;;;;;8.50;96.10;;;;;;5021449;28;19913;-71
2022/01/10 04:25:16;;;;;;;;;;;8.50;96.10;;;;;;5021010;28;20008;-71
2022/01/10 04:27:42;;;;;;;;;;;8.50;96.10;;;;;;5020095;28;20361;-71
2022/01/10 04:30:07;;;;;;;;;;;8.50;96.10;;;;;;5009311;28;20012;-71
2022/01/10 04:32:35;;;;;;;;;;;8.50;96.10;;;;;;5026523;28;21322;-71
2022/01/10 04:35:02;;;;;;;;;;;8.50;96.10;;;;;;5021045;28;19914;-71
2022/01/10 04:37:28;;;;;;;;;;;8.50;96.10;;;;;;5021038;28;19913;-71
2022/01/10 04:39:53;;;;;;;;;;;8.50;96.10;;;;;;5020897;28;19932;-71
2022/01/10 04:42:19;;;;;;;;;;;8.50;96.10;;;;;;5020888;28;19917;-71
2022/01/10 04:44:44;;;;;;;;;;;8.50;96.20;;;;;;5021319;28;20019;-71
2022/01/10 04:47:10;;;;;;;;;;;8.50;96.20;;;;;;5028350;28;20403;-71
2022/01/10 04:52:20;;;;;;;;;;;8.50;96.10;;;;;;5020962;28;20029;-71
2022/01/10 04:54:46;;;;;;;;;;;8.50;96.20;;;;;;5020347;28;19945;-71
2022/01/10 04:57:11;;;;;;;;;;;8.50;96.20;;;;;;5016335;28;19909;-71
2022/01/10 04:59:37;;;;;;;;;;;8.50;96.30;;;;;;5020891;28;19910;-71
2022/01/10 05:02:03;;;;;;;;;;;8.50;96.20;;;;;;5020586;28;19910;-71
2022/01/10 05:04:29;;;;;;;;;;;8.50;96.20;;;;;;5020773;28;20432;-71
2022/01/10 05:06:54;;;;;;;;;;;8.50;96.20;;;;;;5020536;28;19909;-71
2022/01/10 05:09:20;;;;;;;;;;;8.50;96.30;;;;;;5020296;28;19909;-71
2022/01/10 05:11:46;;;;;;;;;;;8.50;96.30;;;;;;5020420;28;19913;-71
2022/01/10 05:14:12;;;;;;;;;;;8.50;96.40;;;;;;5020370;28;19921;-71
2022/01/10 05:16:40;;;;;;;;;;;8.50;96.30;;;;;;5020482;28;19916;-71
2022/01/10 05:19:06;;;;;;;;;;;8.50;96.40;;;;;;5020568;28;19909;-71
2022/01/10 05:21:31;;;;;;;;;;;8.50;96.40;;;;;;5020262;28;19997;-71
2022/01/10 05:23:57;;;;;;;;;;;8.50;96.40;;;;;;5019948;28;20381;-71
2022/01/10 05:26:22;;;;;;;;;;;8.50;96.40;;;;;;5019955;28;19967;-71
2022/01/10 05:28:48;;;;;;;;;;;8.50;96.40;;;;;;5010152;28;19914;-71
2022/01/10 05:31:14;;;;;;;;;;;8.50;96.40;;;;;;5032073;28;19910;-71
2022/01/10 05:33:40;;;;;;;;;;;8.50;96.40;;;;;;5026139;28;19914;-71
2022/01/10 05:36:05;;;;;;;;;;;8.50;96.50;;;;;;5019853;28;20384;-71
2022/01/10 05:38:31;;;;;;;;;;;8.50;96.60;;;;;;5020024;28;19910;-71
2022/01/10 05:40:57;;;;;;;;;;;8.50;96.50;;;;;;5019545;28;19910;-71
2022/01/10 05:43:22;;;;;;;;;;;8.50;96.50;;;;;;5019876;28;19909;-71
2022/01/10 05:45:48;;;;;;;;;;;8.50;96.60;;;;;;5019805;28;19909;-71
2022/01/10 05:48:21;;;;;;;;;;;8.50;96.60;;;;;;5027153;28;19933;-71
2022/01/10 05:50:47;;;;;;;;;;;8.50;96.60;;;;;;5018360;28;19932;-71
2022/01/10 05:53:13;;;;;;;;;;;8.50;96.70;;;;;;5019739;28;20000;-71
2022/01/10 05:55:39;;;;;;;;;;;8.50;96.60;;;;;;5019159;28;19914;-71
2022/01/10 05:58:06;;;;;;;;;;;8.50;96.60;;;;;;5015847;28;20369;-71
2022/01/10 06:00:33;;;;;;;;;;;8.50;96.60;;;;;;5019498;28;19917;-71
2022/01/10 06:02:58;;;;;;;;;;;8.50;96.70;;;;;;5019638;28;19961;-71
2022/01/10 06:05:30;;;;;;;;;;;8.50;96.70;;;;;;5019409;28;20004;-72
2022/01/10 06:07:56;;;;;;;;;;;8.50;96.70;;;;;;5019619;28;19916;-73
2022/01/10 06:10:22;;;;;;;;;;;8.50;96.60;;;;;;5019139;28;20376;-73
2022/01/10 06:12:48;;;;;;;;;;;8.50;96.70;;;;;;5019257;28;19932;-74
2022/01/10 06:15:13;;;;;;;;;;;8.50;96.70;;;;;;5019281;28;19913;-74
2022/01/10 06:17:39;;;;;;;;;;;8.50;96.80;;;;;;5019405;28;19910;-72
2022/01/10 06:20:05;;;;;;;;;;;8.50;96.70;;;;;;5019125;28;19931;-73
2022/01/10 06:22:34;;;;;;;;;;;8.60;96.80;;;;;;5019160;28;19916;-80
2022/01/10 06:25:00;;;;;;;;;;;8.50;96.80;;;;;;5018932;28;20435;-74
2022/01/10 06:27:26;;;;;;;;;;;8.50;96.80;;;;;;5017843;28;19921;-80
2022/01/10 06:29:52;;;;;;;;;;;8.50;96.90;;;;;;5017798;28;19909;-78
2022/01/10 06:32:17;;;;;;;;;;;8.50;96.90;;;;;;5024060;28;19909;-78
2022/01/10 06:34:43;;;;;;;;;;;8.50;97.00;;;;;;5019842;28;19914;-82
2022/01/10 06:37:09;;;;;;;;;;;8.50;97.00;;;;;;5017267;28;20276;-77
2022/01/10 06:39:35;;;;;;;;;;;8.50;97.10;;;;;;5018611;28;20000;-77
2022/01/10 06:42:00;;;;;;;;;;;8.50;97.10;;;;;;5018221;28;19909;-84
2022/01/10 06:44:26;;;;;;;;;;;8.50;97.20;;;;;;5017516;28;20403;-87
2022/01/10 06:46:52;;;;;;;;;;;8.50;97.20;;;;;;5023927;28;19909;-79
2022/01/10 06:49:18;;;;;;;;;;;8.50;97.20;;;;;;5019340;28;19932;-76
2022/01/10 06:51:44;;;;;;;;;;;8.50;97.20;;;;;;5018653;28;20435;-77
2022/01/10 06:54:10;;;;;;;;;;;8.50;97.30;;;;;;5018075;28;19983;-74
2022/01/10 06:56:35;;;;;;;;;;;8.50;97.40;;;;;;5014721;28;19916;-83
2022/01/10 06:59:01;;;;;;;;;;;8.50;97.30;;;;;;5017968;28;19992;-80
2022/01/10 07:01:27;;;;;;;;;;;8.50;97.30;;;;;;5018796;28;19909;-84
2022/01/10 07:03:54;;;;;;;;;;;8.50;97.30;;;;;;5018356;28;20004;-81
2022/01/10 07:06:20;;;;;;;;;;;8.50;97.30;;;;;;5018490;28;20391;-81
2022/01/10 07:08:45;;;;;;;;;;;8.50;97.30;;;;;;5005124;28;20377;-81
2022/01/10 07:11:11;;;;;;;;;;;8.50;97.30;;;;;;5018164;28;20004;-80
2022/01/10 07:13:37;;;;;;;;;;;8.50;97.20;;;;;;5018329;28;19945;-80
2022/01/10 07:16:03;;;;;;;;;;;8.50;97.30;;;;;;5018167;28;19916;-80
2022/01/10 07:18:28;;;;;;;;;;;8.50;97.30;;;;;;5018250;28;20313;-80
2022/01/10 07:20:54;;;;;;;;;;;8.50;97.40;;;;;;5018063;28;19909;-80
2022/01/10 07:23:19;;;;;;;;;;;8.50;97.40;;;;;;5017946;28;19910;-80
2022/01/10 07:25:45;;;;;;;;;;;8.50;97.50;;;;;;5017599;28;19968;-81
2022/01/10 07:28:11;;;;;;;;;;;8.50;97.50;;;;;;5012466;28;19910;-81
2022/01/10 07:30:36;;;;;;;;;;;8.50;97.60;;;;;;5009065;28;19917;-81
2022/01/10 07:33:02;;;;;;;;;;;8.50;97.60;;;;;;5023305;28;19910;-81
2022/01/10 07:35:28;;;;;;;;;;;8.50;97.70;;;;;;5017634;28;19913;-81
2022/01/10 07:37:54;;;;;;;;;;;8.50;97.70;;;;;;5017471;28;19937;-81
2022/01/10 07:40:20;;;;;;;;;;;8.50;97.70;;;;;;5017284;28;19964;-82
2022/01/10 07:42:45;;;;;;;;;;;8.50;97.70;;;;;;5017178;28;19909;-82
2022/01/10 07:45:11;;;;;;;;;;;8.40;97.70;;;;;;5017374;28;19973;-82
2022/01/10 07:47:37;;;;;;;;;;;8.50;97.80;;;;;;5025108;28;19913;-81
2022/01/10 07:50:04;;;;;;;;;;;8.50;97.80;;;;;;5017461;28;20266;-81
2022/01/10 07:52:30;;;;;;;;;;;8.50;97.80;;;;;;5017297;28;19910;-81
2022/01/10 07:54:55;;;;;;;;;;;8.50;97.90;;;;;;5019700;28;19968;-81
2022/01/10 07:57:21;;;;;;;;;;;8.50;97.80;;;;;;5016977;28;19945;-82
2022/01/10 07:59:47;;;;;;;;;;;8.50;97.80;;;;;;5021559;28;19956;-77
2022/01/10 08:02:13;;;;;;;;;;;8.50;97.80;;;;;;5021133;28;19909;-76
2022/01/10 08:04:39;;;;;;;;;;;8.50;97.70;;;;;;5021149;28;20309;-76
2022/01/10 08:07:05;;;;;;;;;;;8.50;97.70;;;;;;5020752;28;19991;-77
2022/01/10 08:09:31;;;;;;;;;;;8.50;97.70;;;;;;5020732;28;19917;-77
2022/01/10 08:11:59;;;;;;;;;;;8.50;97.60;;;;;;5021206;28;19914;-77
2022/01/10 08:14:26;;;;;;;;;;;8.50;97.60;;;;;;5019080;28;19917;-77
2022/01/10 08:16:51;;;;;;;;;;;8.50;97.50;;;;;;5021432;28;19910;-77
2022/01/10 08:19:17;;;;;;;;;;;8.60;97.60;;;;;;5019891;28;19910;-77
2022/01/10 08:21:43;;;;;;;;;;;8.60;97.50;;;;;;5021532;28;19996;-77
2022/01/10 08:24:08;;;;;;;;;;;8.60;97.50;;;;;;5018820;28;19953;-77
2022/01/10 08:26:34;;;;;;;;;;;8.50;97.50;;;;;;5021163;28;19930;-77
2022/01/10 08:29:00;;;;;;;;;;;8.60;97.50;;;;;;5008886;28;19910;-77
2022/01/10 08:31:25;;;;;;;;;;;8.60;97.60;;;;;;5019386;28;19909;-77
2022/01/10 08:33:52;;;;;;;;;;;8.60;97.70;;;;;;5027223;28;19913;-77
2022/01/10 08:36:18;;;;;;;;;;;8.60;97.80;;;;;;5020854;28;19972;-77
2022/01/10 08:38:43;;;;;;;;;;;8.50;97.80;;;;;;5020922;28;19910;-77
2022/01/10 08:41:09;;;;;;;;;;;8.50;97.90;;;;;;5020675;28;20008;-77
2022/01/10 08:43:35;;;;;;;;;;;8.50;97.90;;;;;;5020885;28;19910;-77
2022/01/10 08:46:00;;;;;;;;;;;8.50;98.00;;;;;;5020639;28;19910;-77
2022/01/10 08:48:26;;;;;;;;;;;8.50;98.00;;;;;;5027997;28;19913;-77
2022/01/10 08:50:53;;;;;;;;;;;8.50;98.10;;;;;;5020618;28;19910;-77
2022/01/10 08:53:19;;;;;;;;;;;8.50;98.10;;;;;;5020372;28;19924;-77
2022/01/10 08:55:44;;;;;;;;;;;8.50;98.10;;;;;;5018569;28;20747;-78
2022/01/10 08:58:10;;;;;;;;;;;8.50;98.20;;;;;;5016175;28;19932;-77
2022/01/10 09:00:36;;;;;;;;;;;8.50;98.20;;;;;;5020233;28;19910;-78
2022/01/10 09:03:02;;;;;;;;;;;8.50;98.30;;;;;;5020521;28;19914;-78
2022/01/10 09:05:29;;;;;;;;;;;8.50;98.30;;;;;;5019760;28;19917;-77
2022/01/10 09:07:58;;;;;;;;;;;8.50;98.30;;;;;;5020412;28;19964;-78
2022/01/10 09:10:25;;;;;;;;;;;8.50;98.40;;;;;;5007693;28;19909;-78
2022/01/10 09:12:50;;;;;;;;;;;8.50;98.40;;;;;;5019944;28;19909;-78
2022/01/10 09:15:16;;;;;;;;;;;8.60;98.50;;;;;;5020162;28;19925;-78
2022/01/10 09:17:42;;;;;;;;;;;8.60;98.50;;;;;;5020375;28;20004;-78
2022/01/10 09:20:08;;;;;;;;;;;8.60;98.50;;;;;;5020101;28;19956;-78
2022/01/10 09:22:34;;;;;;;;;;;8.60;98.50;;;;;;5020094;28;19917;-78
2022/01/10 09:25:00;;;;;;;;;;;8.60;98.60;;;;;;5018459;28;20067;-78
2022/01/10 09:27:26;;;;;;;;;;;8.60;98.60;;;;;;5019954;28;20439;-78
2022/01/10 09:29:51;;;;;;;;;;;8.60;98.60;;;;;;5006661;28;19910;-78
2022/01/10 09:32:17;;;;;;;;;;;8.60;98.60;;;;;;5023684;28;20335;-78
2022/01/10 09:34:43;;;;;;;;;;;8.60;98.60;;;;;;5019126;28;20381;-78
2022/01/10 09:37:09;;;;;;;;;;;8.60;98.70;;;;;;5019504;28;20000;-78
2022/01/10 09:39:35;;;;;;;;;;;8.60;98.70;;;;;;5019469;28;19910;-77
2022/01/10 09:42:01;;;;;;;;;;;8.60;98.80;;;;;;5019673;28;19909;-78
2022/01/10 09:44:26;;;;;;;;;;;8.60;98.80;;;;;;5019327;28;19921;-78
2022/01/10 09:46:53;;;;;;;;;;;8.60;98.80;;;;;;5026358;28;19909;-78
2022/01/10 09:49:19;;;;;;;;;;;8.60;98.80;;;;;;5020040;28;19910;-78
2022/01/10 09:51:45;;;;;;;;;;;8.60;98.90;;;;;;5019718;28;19909;-78
2022/01/10 09:54:11;;;;;;;;;;;8.60;98.90;;;;;;5018994;28;20333;-78
2022/01/10 09:56:37;;;;;;;;;;;8.70;99.00;;;;;;5015759;28;19914;-79
2022/01/10 09:59:03;;;;;;;;;;;8.70;99.00;;;;;;5019488;28;19909;-79
2022/01/10 10:01:30;;;;;;;;;;;8.70;99.00;;;;;;5017860;28;19933;-78
2022/01/10 10:03:58;;;;;;;;;;;8.80;99.10;;;;;;5019588;28;20327;-79
2022/01/10 10:06:25;;;;;;;;;;;8.80;99.10;;;;;;5018921;28;19916;-79
2022/01/10 10:08:51;;;;;;;;;;;8.80;99.10;;;;;;5019022;28;19913;-78
2022/01/10 10:11:17;;;;;;;;;;;8.80;99.10;;;;;;5019069;28;19997;-79
2022/01/10 10:13:54;;;;;;;;;;;8.90;99.10;;;;;;5019005;28;19967;-79
2022/01/10 10:16:20;;;;;;;;;;;8.90;99.10;;;;;;5017543;28;20000;-79
2022/01/10 10:18:47;;;;;;;;;;;8.90;99.10;;;;;;5018626;28;19943;-78
2022/01/10 10:21:14;;;;;;;;;;;8.90;99.00;;;;;;5018993;28;19913;-79
2022/01/10 10:23:41;;;;;;;;;;;8.90;99.00;;;;;;5019251;28;19948;-79
2022/01/10 10:26:07;;;;;;;;;;;8.90;99.30;;;;;;5018641;28;19998;-78
2022/01/10 10:28:35;;;;;;;;;;;8.90;99.00;;;;;;5010754;28;19925;-79
2022/01/10 10:31:01;;;;;;;;;;;8.90;99.00;;;;;;5013494;28;19916;-78
2022/01/10 10:33:26;;;;;;;;;;;8.90;99.00;;;;;;5024934;28;20548;-78
2022/01/10 10:35:56;;;;;;;;;;;9.00;99.10;;;;;;5017322;28;19963;-78
2022/01/10 10:38:24;;;;;;;;;;;9.00;99.10;;;;;;5018849;28;20003;-78
2022/01/10 10:40:49;;;;;;;;;;;9.00;99.00;;;;;;5016781;28;20439;-78
2022/01/10 10:43:15;;;;;;;;;;;9.00;99.10;;;;;;5018401;28;19952;-77
2022/01/10 10:45:41;;;;;;;;;;;9.00;99.10;;;;;;5018389;28;19915;-77
2022/01/10 10:48:08;;;;;;;;;;;9.00;99.20;;;;;;5025772;28;19916;-78
2022/01/10 10:50:41;;;;;;;;;;;9.00;99.20;;;;;;5018109;28;19916;-78
2022/01/10 10:53:09;;;;;;;;;;;9.10;99.20;;;;;;5018102;28;19920;-78
2022/01/10 10:55:36;;;;;;;;;;;9.10;99.20;;;;;;5017583;28;19977;-78
2022/01/10 10:58:02;;;;;;;;;;;9.10;99.20;;;;;;5013336;28;20442;-78
2022/01/10 11:00:27;;;;;;;;;;;9.10;99.20;;;;;;5017919;28;19988;-78
2022/01/10 11:02:54;;;;;;;;;;;9.20;99.20;;;;;;5016816;28;19909;-78
2022/01/10 11:05:19;;;;;;;;;;;9.20;99.20;;;;;;5017996;28;20396;-78
2022/01/10 11:07:45;;;;;;;;;;;9.20;99.20;;;;;;5018175;28;20264;-78
2022/01/10 11:10:11;;;;;;;;;;;9.30;99.10;;;;;;5017754;28;19916;-77
2022/01/10 11:12:41;;;;;;;;;;;9.30;99.10;;;;;;5018325;28;19910;-77
2022/01/10 11:15:07;;;;;;;;;;;9.30;99.10;;;;;;5016771;28;19987;-77
2022/01/10 11:17:33;;;;;;;;;;;9.30;99.10;;;;;;5018319;28;19963;-78
2022/01/10 11:20:10;;;;;;;;;;;9.30;99.40;;;;;;5018123;28;19914;-77
2022/01/10 11:22:42;;;;;;;;;;;9.30;99.10;;;;;;5018190;28;19917;-77
2022/01/10 11:25:22;;;;;;;;;;;9.30;99.10;;;;;;5017703;28;20376;-77
2022/01/10 11:27:48;;;;;;;;;;;9.40;99.10;;;;;;5016116;28;19967;-78
2022/01/10 11:30:34;;;;;;;;;;;9.30;99.00;;;;;;5006735;28;19916;-77
2022/01/10 11:33:06;;;;;;;;;;;9.40;99.00;;;;;;5022532;28;19921;-78
2022/01/10 11:35:33;;;;;;;;;;;9.40;99.00;;;;;;5018021;28;20285;-78
2022/01/10 11:37:59;;;;;;;;;;;9.40;99.00;;;;;;5017309;28;19909;-75
2022/01/10 11:40:25;;;;;;;;;;;9.40;99.00;;;;;;5017271;28;19976;-75
2022/01/10 11:42:58;;;;;;;;;;;9.40;99.10;;;;;;5015924;28;20329;-75
2022/01/10 11:45:24;;;;;;;;;;;9.50;99.10;;;;;;5017599;28;19910;-75
2022/01/10 11:48:01;;;;;;;;;;;9.50;99.10;;;;;;5024591;28;19920;-76
2022/01/10 11:50:28;;;;;;;;;;;9.50;99.10;;;;;;5017093;28;19914;-76
2022/01/10 11:52:54;;;;;;;;;;;9.50;99.00;;;;;;5017657;28;19917;-76
2022/01/10 11:55:29;;;;;;;;;;;9.50;99.10;;;;;;5016964;28;20004;-76
2022/01/10 11:58:01;;;;;;;;;;;9.60;99.20;;;;;;5012506;28;19916;-76
2022/01/10 12:00:34;;;;;;;;;;;9.60;99.20;;;;;;5017382;28;19933;-78
2022/01/10 12:03:00;;;;;;;;;;;9.60;99.20;;;;;;5017898;28;19909;-77
2022/01/10 12:05:25;;;;;;;;;;;9.60;99.10;;;;;;5017458;28;19921;-77
2022/01/10 12:07:51;;;;;;;;;;;9.60;99.00;;;;;;5017608;28;20436;-82
2022/01/10 12:10:17;;;;;;;;;;;9.60;99.10;;;;;;5015717;28;19918;-77
2022/01/10 12:12:43;;;;;;;;;;;9.50;99.00;;;;;;5017400;28;20426;-80
2022/01/10 12:15:09;;;;;;;;;;;9.60;99.10;;;;;;5004228;28;19913;-79
2022/01/10 12:17:36;;;;;;;;;;;9.60;99.10;;;;;;5017255;28;19910;-80
2022/01/10 12:20:03;;;;;;;;;;;9.60;99.10;;;;;;5017530;28;19909;-78
2022/01/10 12:22:28;;;;;;;;;;;9.60;99.10;;;;;;5017522;28;19909;-78
2022/01/10 12:24:55;;;;;;;;;;;9.60;99.00;;;;;;5016836;28;19975;-76
2022/01/10 12:27:21;;;;;;;;;;;9.60;99.00;;;;;;5017178;28;19917;-83
2022/01/10 12:29:46;;;;;;;;;;;9.60;99.00;;;;;;5015679;28;19989;-82
2022/01/10 12:32:12;;;;;;;;;;;9.60;98.90;;;;;;5020303;28;20271;-80
2022/01/10 12:34:38;;;;;;;;;;;9.60;98.80;;;;;;5017280;28;19975;-76
2022/01/10 12:37:04;;;;;;;;;;;9.60;98.80;;;;;;5017110;28;19910;-81
2022/01/10 12:39:31;;;;;;;;;;;9.60;98.80;;;;;;5017000;28;19916;-87
2022/01/10 12:41:58;;;;;;;;;;;9.60;98.90;;;;;;5020179;28;20358;-76
2022/01/10 12:44:25;;;;;;;;;;;9.50;98.80;;;;;;5020334;28;19913;-77
2022/01/10 12:46:51;;;;;;;;;;;9.50;98.90;;;;;;5026901;28;20584;-76
2022/01/10 12:49:17;;;;;;;;;;;9.60;98.90;;;;;;5021198;28;19957;-77
2022/01/10 12:51:47;;;;;;;;;;;9.50;98.80;;;;;;5020374;28;19913;-80
2022/01/10 12:54:18;;;;;;;;;;;9.60;98.80;;;;;;5020031;28;19913;-75
2022/01/10 12:56:44;;;;;;;;;;;9.60;98.80;;;;;;5016956;28;20008;-75
2022/01/10 12:59:14;;;;;;;;;;;9.60;98.70;;;;;;5020463;28;19909;-76
2022/01/10 13:01:39;;;;;;;;;;;9.60;98.80;;;;;;5019951;28;19910;-76
2022/01/10 13:04:05;;;;;;;;;;;9.60;98.80;;;;;;5019858;28;19909;-75
2022/01/10 13:06:32;;;;;;;;;;;9.60;98.80;;;;;;5019998;28;20008;-75
2022/01/10 13:08:58;;;;;;;;;;;9.70;98.80;;;;;;5020320;28;19910;-75
2022/01/10 13:11:31;;;;;;;;;;;9.70;98.80;;;;;;5020310;28;20272;-75
2022/01/10 13:14:07;;;;;;;;;;;9.70;98.70;;;;;;5019885;28;19914;-75
2022/01/10 13:16:33;;;;;;;;;;;9.80;98.70;;;;;;5020483;28;19909;-75
2022/01/10 13:19:05;;;;;;;;;;;9.80;98.70;;;;;;5019503;28;19913;-76
2022/01/10 13:21:37;;;;;;;;;;;9.80;98.60;;;;;;5020020;28;19993;-75
2022/01/10 13:24:09;;;;;;;;;;;9.80;98.60;;;;;;5019960;28;19916;-75
2022/01/10 13:26:35;;;;;;;;;;;9.90;98.50;;;;;;5007721;28;19922;-75
2022/01/10 13:29:04;;;;;;;;;;;9.90;98.40;;;;;;5008073;28;20380;-75
2022/01/10 13:31:36;;;;;;;;;;;9.90;98.40;;;;;;5018970;28;19913;-75
2022/01/10 13:34:02;;;;;;;;;;;9.90;98.30;;;;;;5026024;28;19913;-75
2022/01/10 13:36:41;;;;;;;;;;;10.00;98.20;;;;;;5019892;28;19972;-75
2022/01/10 13:39:16;;;;;;;;;;;10.00;98.10;;;;;;5019157;28;19910;-75
2022/01/10 13:41:55;;;;;;;;;;;10.00;98.10;;;;;;5019383;28;19910;-75
2022/01/10 13:44:21;;;;;;;;;;;10.00;98.00;;;;;;5019232;28;19914;-75
2022/01/10 13:46:46;;;;;;;;;;;10.00;97.90;;;;;;5025522;28;20277;-76
2022/01/10 13:49:25;;;;;;;;;;;10.00;97.70;;;;;;5020074;28;19992;-75
2022/01/10 13:52:06;;;;;;;;;;;10.00;97.70;;;;;;5019101;28;19909;-76
2022/01/10 13:54:31;;;;;;;;;;;10.00;97.60;;;;;;5019260;28;19914;-75
2022/01/10 13:56:57;;;;;;;;;;;9.90;97.60;;;;;;5015451;28;19980;-75
2022/01/10 13:59:23;;;;;;;;;;;10.00;97.60;;;;;;5019093;28;19917;-75
2022/01/10 14:01:54;;;;;;;;;;;9.90;97.60;;;;;;5018959;28;19909;-75
2022/01/10 14:04:24;;;;;;;;;;;9.90;97.60;;;;;;5019283;28;19909;-75
2022/01/10 14:06:50;;;;;;;;;;;9.90;97.60;;;;;;5019187;28;19914;-75
2022/01/10 14:09:15;;;;;;;;;;;9.90;97.60;;;;;;5019150;28;20510;-75
2022/01/10 14:11:41;;;;;;;;;;;9.90;97.70;;;;;;5019128;28;19948;-75
2022/01/10 14:14:09;;;;;;;;;;;9.90;97.70;;;;;;5018736;28;19920;-76
2022/01/10 14:16:37;;;;;;;;;;;9.90;97.90;;;;;;5018991;28;19910;-75
2022/01/10 14:19:05;;;;;;;;;;;9.90;97.90;;;;;;5019419;28;19909;-75
2022/01/10 14:21:31;;;;;;;;;;;10.00;98.00;;;;;;5018932;28;19910;-75
2022/01/10 14:23:57;;;;;;;;;;;10.00;98.10;;;;;;5018673;28;19963;-75
2022/01/10 14:26:23;;;;;;;;;;;10.10;98.10;;;;;;5018535;28;19929;-75
2022/01/10 14:28:49;;;;;;;;;;;10.10;98.10;;;;;;5008774;28;20031;-75
2022/01/10 14:31:15;;;;;;;;;;;10.10;98.10;;;;;;5030689;28;19918;-75
2022/01/10 14:33:41;;;;;;;;;;;10.10;98.10;;;;;;5024510;28;20001;-75
2022/01/10 14:36:07;;;;;;;;;;;10.10;98.00;;;;;;5018272;28;20000;-75